sensor_id;sensor_type;location;lat;lon;timestamp;temperature;humidity
2687;DHT22;1353;51.386;7.028;2022-12-18T00:02:17;-3.80;99.90
2687;DHT22;1353;51.386;7.028;2022-12-18T00:04:44;-3.80;99.90
2687;DHT22;1353;51.386;7.028;2022-12-18T00:07:11;-3.70;99.90
2687;DHT22;1353;51.386;7.028;2022-12-18T00:09:37;-3.60;99.90
2687;DHT22;1353;51.386;7.028;2022-12-18T00:12:06;-3.60;99.90
2687;DHT22;1353;51.386;7.028;2022-12-18T00:14:33;-3.40;99.90
2687;DHT22;1353;51.386;7.028;2022-12-18T00:17:00;-3.20;99.90
2687;DHT22;1353;51.386;7.028;2022-12-18T00:19:27;-3.00;99.90
2687;DHT22;1353;51.386;7.028;2022-12-18T00:21:53;-2.70;99.90
2687;DHT22;1353;51.386;7.028;2022-12-18T00:24:20;-3.20;99.90
2687;DHT22;1353;51.386;7.028;2022-12-18T00:26:47;-3.60;99.90
2687;DHT22;1353;51.386;7.028;2022-12-18T00:29:15;-3.60;99.90
2687;DHT22;1353;51.386;7.028;2022-12-18T00:31:42;-3.20;99.90
2687;DHT22;1353;51.386;7.028;2022-12-18T00:34:10;-2.40;99.90
2687;DHT22;1353;51.386;7.028;2022-12-18T00:36:37;-2.60;99.90
2687;DHT22;1353;51.386;7.028;2022-12-18T00:39:05;-2.50;99.90
2687;DHT22;1353;51.386;7.028;2022-12-18T00:41:32;-2.80;99.90
2687;DHT22;1353;51.386;7.028;2022-12-18T00:44:18;-3.10;99.90
2687;DHT22;1353;51.386;7.028;2022-12-18T00:46:47;-3.00;99.90
2687;DHT22;1353;51.386;7.028;2022-12-18T00:49:15;-2.90;99.90
2687;DHT22;1353;51.386;7.028;2022-12-18T00:51:42;-3.20;99.90
2687;DHT22;1353;51.386;7.028;2022-12-18T00:54:08;-2.90;99.90
2687;DHT22;1353;51.386;7.028;2022-12-18T00:56:36;-3.10;99.90
2687;DHT22;1353;51.386;7.028;2022-12-18T00:59:03;-2.80;99.90
2687;DHT22;1353;51.386;7.028;2022-12-18T01:01:32;-2.40;99.90
2687;DHT22;1353;51.386;7.028;2022-12-18T01:04:00;-2.70;99.90
2687;DHT22;1353;51.386;7.028;2022-12-18T01:06:27;-2.40;99.90
2687;DHT22;1353;51.386;7.028;2022-12-18T01:08:54;-2.70;99.90
2687;DHT22;1353;51.386;7.028;2022-12-18T01:11:21;-2.70;99.90
2687;DHT22;1353;51.386;7.028;2022-12-18T01:13:48;-2.30;99.90
2687;DHT22;1353;51.386;7.028;2022-12-18T01:16:16;-2.60;99.90
2687;DHT22;1353;51.386;7.028;2022-12-18T01:18:45;-2.20;99.90
2687;DHT22;1353;51.386;7.028;2022-12-18T01:21:14;-2.90;99.90
2687;DHT22;1353;51.386;7.028;2022-12-18T01:23:44;-2.20;99.90
2687;DHT22;1353;51.386;7.028;2022-12-18T01:26:13;-2.50;99.90
2687;DHT22;1353;51.386;7.028;2022-12-18T01:28:40;-2.50;99.90
2687;DHT22;1353;51.386;7.028;2022-12-18T01:31:12;-2.80;99.90
2687;DHT22;1353;51.386;7.028;2022-12-18T01:33:39;-3.00;99.90
2687;DHT22;1353;51.386;7.028;2022-12-18T01:36:08;-2.90;99.90
2687;DHT22;1353;51.386;7.028;2022-12-18T01:38:35;-2.70;99.90
2687;DHT22;1353;51.386;7.028;2022-12-18T01:41:02;-2.70;99.90
2687;DHT22;1353;51.386;7.028;2022-12-18T01:43:46;-2.60;99.90
2687;DHT22;1353;51.386;7.028;2022-12-18T01:46:13;-2.50;99.90
2687;DHT22;1353;51.386;7.028;2022-12-18T01:48:40;-2.30;99.90
2687;DHT22;1353;51.386;7.028;2022-12-18T01:51:10;-2.20;99.90
2687;DHT22;1353;51.386;7.028;2022-12-18T01:53:40;-2.00;99.90
2687;DHT22;1353;51.386;7.028;2022-12-18T01:56:08;-2.10;99.90
2687;DHT22;1353;51.386;7.028;2022-12-18T01:58:43;-1.80;99.90
2687;DHT22;1353;51.386;7.028;2022-12-18T02:01:12;-2.10;99.90
2687;DHT22;1353;51.386;7.028;2022-12-18T02:03:41;-1.90;99.90
2687;DHT22;1353;51.386;7.028;2022-12-18T02:06:13;-1.80;99.90
2687;DHT22;1353;51.386;7.028;2022-12-18T02:08:49;-1.80;99.90
2687;DHT22;1353;51.386;7.028;2022-12-18T02:11:22;-1.80;99.90
2687;DHT22;1353;51.386;7.028;2022-12-18T02:13:58;-2.10;99.90
2687;DHT22;1353;51.386;7.028;2022-12-18T02:16:32;-1.70;99.90
2687;DHT22;1353;51.386;7.028;2022-12-18T02:19:03;-1.70;99.90
2687;DHT22;1353;51.386;7.028;2022-12-18T02:21:40;-2.30;99.90
2687;DHT22;1353;51.386;7.028;2022-12-18T02:24:18;-2.10;99.90
2687;DHT22;1353;51.386;7.028;2022-12-18T02:26:55;-2.50;99.90
2687;DHT22;1353;51.386;7.028;2022-12-18T02:29:24;-2.80;99.90
2687;DHT22;1353;51.386;7.028;2022-12-18T02:31:56;-2.40;99.90
2687;DHT22;1353;51.386;7.028;2022-12-18T02:34:28;-2.10;99.90
2687;DHT22;1353;51.386;7.028;2022-12-18T02:36:57;-2.20;99.90
2687;DHT22;1353;51.386;7.028;2022-12-18T02:39:26;-2.20;99.90
2687;DHT22;1353;51.386;7.028;2022-12-18T02:41:56;-2.10;99.90
2687;DHT22;1353;51.386;7.028;2022-12-18T02:44:23;-2.40;99.90
2687;DHT22;1353;51.386;7.028;2022-12-18T02:46:52;-2.40;99.90
2687;DHT22;1353;51.386;7.028;2022-12-18T02:49:31;-2.20;99.90
2687;DHT22;1353;51.386;7.028;2022-12-18T02:52:07;-2.20;99.90
2687;DHT22;1353;51.386;7.028;2022-12-18T02:54:49;-2.10;99.90
2687;DHT22;1353;51.386;7.028;2022-12-18T02:57:24;-2.30;99.90
2687;DHT22;1353;51.386;7.028;2022-12-18T02:59:58;-2.40;99.90
2687;DHT22;1353;51.386;7.028;2022-12-18T03:02:31;-2.90;99.90
2687;DHT22;1353;51.386;7.028;2022-12-18T03:05:04;-2.50;99.90
2687;DHT22;1353;51.386;7.028;2022-12-18T03:07:36;-2.70;99.90
2687;DHT22;1353;51.386;7.028;2022-12-18T03:10:07;-2.90;99.90
2687;DHT22;1353;51.386;7.028;2022-12-18T03:12:41;-2.30;99.90
2687;DHT22;1353;51.386;7.028;2022-12-18T03:15:11;-2.20;99.90
2687;DHT22;1353;51.386;7.028;2022-12-18T03:17:43;-2.60;99.90
2687;DHT22;1353;51.386;7.028;2022-12-18T03:20:14;-2.70;99.90
2687;DHT22;1353;51.386;7.028;2022-12-18T03:22:44;-2.70;99.90
2687;DHT22;1353;51.386;7.028;2022-12-18T03:25:13;-2.90;99.90
2687;DHT22;1353;51.386;7.028;2022-12-18T03:27:46;-2.70;99.90
2687;DHT22;1353;51.386;7.028;2022-12-18T03:30:14;-3.10;99.90
2687;DHT22;1353;51.386;7.028;2022-12-18T03:32:44;-2.40;99.90
2687;DHT22;1353;51.386;7.028;2022-12-18T03:35:16;-2.50;99.90
2687;DHT22;1353;51.386;7.028;2022-12-18T03:37:45;-2.60;99.90
2687;DHT22;1353;51.386;7.028;2022-12-18T03:40:11;-2.80;99.90
2687;DHT22;1353;51.386;7.028;2022-12-18T03:42:45;-2.40;99.90
2687;DHT22;1353;51.386;7.028;2022-12-18T03:45:20;-2.60;99.90
2687;DHT22;1353;51.386;7.028;2022-12-18T03:47:59;-2.60;99.90
2687;DHT22;1353;51.386;7.028;2022-12-18T03:50:36;-2.30;99.90
2687;DHT22;1353;51.386;7.028;2022-12-18T03:53:13;-2.40;99.90
2687;DHT22;1353;51.386;7.028;2022-12-18T03:55:43;-2.30;99.90
2687;DHT22;1353;51.386;7.028;2022-12-18T03:58:14;-2.40;99.90
2687;DHT22;1353;51.386;7.028;2022-12-18T04:00:43;-2.60;99.90
2687;DHT22;1353;51.386;7.028;2022-12-18T04:03:10;-2.50;99.90
2687;DHT22;1353;51.386;7.028;2022-12-18T04:05:39;-2.80;99.90
2687;DHT22;1353;51.386;7.028;2022-12-18T04:08:06;-2.70;99.90
2687;DHT22;1353;51.386;7.028;2022-12-18T04:10:36;-2.80;99.90
2687;DHT22;1353;51.386;7.028;2022-12-18T04:13:03;-2.80;99.90
2687;DHT22;1353;51.386;7.028;2022-12-18T04:15:31;-2.60;99.90
2687;DHT22;1353;51.386;7.028;2022-12-18T04:17:59;-2.30;99.90
2687;DHT22;1353;51.386;7.028;2022-12-18T04:20:27;-2.60;99.90
2687;DHT22;1353;51.386;7.028;2022-12-18T04:22:53;-2.40;99.90
2687;DHT22;1353;51.386;7.028;2022-12-18T04:25:20;-2.50;99.90
2687;DHT22;1353;51.386;7.028;2022-12-18T04:27:47;-2.30;99.90
2687;DHT22;1353;51.386;7.028;2022-12-18T04:30:14;-2.30;99.90
2687;DHT22;1353;51.386;7.028;2022-12-18T04:32:42;-2.50;99.90
2687;DHT22;1353;51.386;7.028;2022-12-18T04:35:08;-2.10;99.90
2687;DHT22;1353;51.386;7.028;2022-12-18T04:37:36;-2.30;99.90
2687;DHT22;1353;51.386;7.028;2022-12-18T04:40:03;-2.30;99.90
2687;DHT22;1353;51.386;7.028;2022-12-18T04:42:30;-2.40;99.90
2687;DHT22;1353;51.386;7.028;2022-12-18T04:44:57;-2.50;99.90
2687;DHT22;1353;51.386;7.028;2022-12-18T04:47:24;-2.20;99.90
2687;DHT22;1353;51.386;7.028;2022-12-18T04:49:52;-2.30;99.90
2687;DHT22;1353;51.386;7.028;2022-12-18T04:52:18;-2.20;99.90
2687;DHT22;1353;51.386;7.028;2022-12-18T04:54:45;-2.50;99.90
2687;DHT22;1353;51.386;7.028;2022-12-18T04:57:12;-2.60;99.90
2687;DHT22;1353;51.386;7.028;2022-12-18T04:59:38;-2.60;99.90
2687;DHT22;1353;51.386;7.028;2022-12-18T05:02:05;-2.70;99.90
2687;DHT22;1353;51.386;7.028;2022-12-18T05:04:32;-2.70;99.90
2687;DHT22;1353;51.386;7.028;2022-12-18T05:07:00;-2.60;99.90
2687;DHT22;1353;51.386;7.028;2022-12-18T05:09:27;-2.90;99.90
2687;DHT22;1353;51.386;7.028;2022-12-18T05:11:53;-2.90;99.90
2687;DHT22;1353;51.386;7.028;2022-12-18T05:14:20;-3.10;99.90
2687;DHT22;1353;51.386;7.028;2022-12-18T05:16:47;-3.40;99.90
2687;DHT22;1353;51.386;7.028;2022-12-18T05:19:13;-3.80;99.90
2687;DHT22;1353;51.386;7.028;2022-12-18T05:21:40;-2.90;99.90
2687;DHT22;1353;51.386;7.028;2022-12-18T05:24:08;-3.50;99.90
2687;DHT22;1353;51.386;7.028;2022-12-18T05:26:35;-3.30;99.90
2687;DHT22;1353;51.386;7.028;2022-12-18T05:29:02;-3.40;99.90
2687;DHT22;1353;51.386;7.028;2022-12-18T05:31:28;-3.30;99.90
2687;DHT22;1353;51.386;7.028;2022-12-18T05:33:55;-3.70;99.90
2687;DHT22;1353;51.386;7.028;2022-12-18T05:36:22;-3.80;99.90
2687;DHT22;1353;51.386;7.028;2022-12-18T05:38:48;-3.70;99.90
2687;DHT22;1353;51.386;7.028;2022-12-18T05:41:16;-4.00;99.90
2687;DHT22;1353;51.386;7.028;2022-12-18T05:43:43;-4.20;99.90
2687;DHT22;1353;51.386;7.028;2022-12-18T05:46:13;-3.20;99.90
2687;DHT22;1353;51.386;7.028;2022-12-18T05:48:40;-3.50;99.90
2687;DHT22;1353;51.386;7.028;2022-12-18T05:51:09;-3.20;99.90
2687;DHT22;1353;51.386;7.028;2022-12-18T05:53:37;-3.20;99.90
2687;DHT22;1353;51.386;7.028;2022-12-18T05:56:06;-2.80;99.90
2687;DHT22;1353;51.386;7.028;2022-12-18T05:58:35;-2.90;99.90
2687;DHT22;1353;51.386;7.028;2022-12-18T06:01:07;-2.80;99.90
2687;DHT22;1353;51.386;7.028;2022-12-18T06:03:34;-3.10;99.90
2687;DHT22;1353;51.386;7.028;2022-12-18T06:06:01;-2.70;99.90
2687;DHT22;1353;51.386;7.028;2022-12-18T06:08:28;-2.40;99.90
2687;DHT22;1353;51.386;7.028;2022-12-18T06:10:54;-2.40;99.90
2687;DHT22;1353;51.386;7.028;2022-12-18T06:13:22;-2.10;99.90
2687;DHT22;1353;51.386;7.028;2022-12-18T06:15:50;-2.40;99.90
2687;DHT22;1353;51.386;7.028;2022-12-18T06:18:17;-2.30;99.90
2687;DHT22;1353;51.386;7.028;2022-12-18T06:20:43;-2.50;99.90
2687;DHT22;1353;51.386;7.028;2022-12-18T06:23:10;-2.70;99.90
2687;DHT22;1353;51.386;7.028;2022-12-18T06:25:38;-2.30;99.90
2687;DHT22;1353;51.386;7.028;2022-12-18T06:28:05;-2.20;99.90
2687;DHT22;1353;51.386;7.028;2022-12-18T06:30:32;-2.30;99.90
2687;DHT22;1353;51.386;7.028;2022-12-18T06:33:00;-2.40;99.90
2687;DHT22;1353;51.386;7.028;2022-12-18T06:35:27;-2.40;99.90
2687;DHT22;1353;51.386;7.028;2022-12-18T06:37:53;-2.30;99.90
2687;DHT22;1353;51.386;7.028;2022-12-18T06:40:20;-1.80;99.90
2687;DHT22;1353;51.386;7.028;2022-12-18T06:42:47;-2.00;99.90
2687;DHT22;1353;51.386;7.028;2022-12-18T06:45:15;-1.90;99.90
2687;DHT22;1353;51.386;7.028;2022-12-18T06:47:41;-1.60;99.10
2687;DHT22;1353;51.386;7.028;2022-12-18T06:50:10;-1.40;97.90
2687;DHT22;1353;51.386;7.028;2022-12-18T06:52:37;-1.80;96.50
2687;DHT22;1353;51.386;7.028;2022-12-18T06:55:05;-1.60;95.90
2687;DHT22;1353;51.386;7.028;2022-12-18T06:57:32;-1.50;93.70
2687;DHT22;1353;51.386;7.028;2022-12-18T06:59:59;-1.60;94.20
2687;DHT22;1353;51.386;7.028;2022-12-18T07:02:26;-1.90;95.00
2687;DHT22;1353;51.386;7.028;2022-12-18T07:04:52;-1.80;93.90
2687;DHT22;1353;51.386;7.028;2022-12-18T07:07:20;-1.90;94.10
2687;DHT22;1353;51.386;7.028;2022-12-18T07:09:48;-1.70;93.20
2687;DHT22;1353;51.386;7.028;2022-12-18T07:12:15;-1.90;93.60
2687;DHT22;1353;51.386;7.028;2022-12-18T07:14:42;-2.00;94.50
2687;DHT22;1353;51.386;7.028;2022-12-18T07:17:09;-1.90;92.70
2687;DHT22;1353;51.386;7.028;2022-12-18T07:19:35;-2.10;93.40
2687;DHT22;1353;51.386;7.028;2022-12-18T07:22:02;-1.70;91.30
2687;DHT22;1353;51.386;7.028;2022-12-18T07:24:30;-1.80;92.60
2687;DHT22;1353;51.386;7.028;2022-12-18T07:26:58;-1.70;91.30
2687;DHT22;1353;51.386;7.028;2022-12-18T07:29:25;-1.90;92.40
2687;DHT22;1353;51.386;7.028;2022-12-18T07:31:52;-2.00;91.50
2687;DHT22;1353;51.386;7.028;2022-12-18T07:34:18;-2.10;91.80
2687;DHT22;1353;51.386;7.028;2022-12-18T07:36:45;-1.70;90.80
2687;DHT22;1353;51.386;7.028;2022-12-18T07:39:12;-2.00;90.90
2687;DHT22;1353;51.386;7.028;2022-12-18T07:41:40;-1.40;86.80
2687;DHT22;1353;51.386;7.028;2022-12-18T07:44:11;-1.50;88.30
2687;DHT22;1353;51.386;7.028;2022-12-18T07:46:45;-1.50;85.10
2687;DHT22;1353;51.386;7.028;2022-12-18T07:49:12;-1.20;83.10
2687;DHT22;1353;51.386;7.028;2022-12-18T07:51:38;-1.30;83.40
2687;DHT22;1353;51.386;7.028;2022-12-18T07:54:05;-1.10;79.80
2687;DHT22;1353;51.386;7.028;2022-12-18T07:56:32;-1.00;77.00
2687;DHT22;1353;51.386;7.028;2022-12-18T07:59:00;-1.10;75.90
2687;DHT22;1353;51.386;7.028;2022-12-18T08:01:27;-1.00;74.20
2687;DHT22;1353;51.386;7.028;2022-12-18T08:03:53;-1.00;74.00
2687;DHT22;1353;51.386;7.028;2022-12-18T08:06:21;-0.80;69.90
2687;DHT22;1353;51.386;7.028;2022-12-18T08:08:47;-0.30;68.80
2687;DHT22;1353;51.386;7.028;2022-12-18T08:11:14;0.30;61.30
2687;DHT22;1353;51.386;7.028;2022-12-18T08:13:41;1.10;61.20
2687;DHT22;1353;51.386;7.028;2022-12-18T08:16:09;0.70;54.20
2687;DHT22;1353;51.386;7.028;2022-12-18T08:18:36;0.20;52.60
2687;DHT22;1353;51.386;7.028;2022-12-18T08:21:10;0.60;55.10
2687;DHT22;1353;51.386;7.028;2022-12-18T08:23:37;0.70;53.10
2687;DHT22;1353;51.386;7.028;2022-12-18T08:26:04;1.20;48.70
2687;DHT22;1353;51.386;7.028;2022-12-18T08:28:31;1.00;46.30
2687;DHT22;1353;51.386;7.028;2022-12-18T08:30:58;1.80;51.80
2687;DHT22;1353;51.386;7.028;2022-12-18T08:33:26;1.50;50.50
2687;DHT22;1353;51.386;7.028;2022-12-18T08:35:53;1.60;49.20
2687;DHT22;1353;51.386;7.028;2022-12-18T08:38:20;1.50;45.00
2687;DHT22;1353;51.386;7.028;2022-12-18T08:40:48;1.40;42.80
2687;DHT22;1353;51.386;7.028;2022-12-18T08:43:14;1.10;44.00
2687;DHT22;1353;51.386;7.028;2022-12-18T08:45:59;1.20;44.40
2687;DHT22;1353;51.386;7.028;2022-12-18T08:48:27;1.20;42.90
2687;DHT22;1353;51.386;7.028;2022-12-18T08:50:54;1.10;43.40
2687;DHT22;1353;51.386;7.028;2022-12-18T08:53:21;1.30;39.00
2687;DHT22;1353;51.386;7.028;2022-12-18T08:55:48;1.00;39.70
2687;DHT22;1353;51.386;7.028;2022-12-18T08:58:15;1.00;37.70
2687;DHT22;1353;51.386;7.028;2022-12-18T09:00:41;0.90;41.50
2687;DHT22;1353;51.386;7.028;2022-12-18T09:03:11;0.80;40.10
2687;DHT22;1353;51.386;7.028;2022-12-18T09:05:39;0.80;39.90
2687;DHT22;1353;51.386;7.028;2022-12-18T09:08:06;0.90;38.00
2687;DHT22;1353;51.386;7.028;2022-12-18T09:10:33;1.00;37.90
2687;DHT22;1353;51.386;7.028;2022-12-18T09:13:00;0.90;37.20
2687;DHT22;1353;51.386;7.028;2022-12-18T09:15:27;0.90;36.90
2687;DHT22;1353;51.386;7.028;2022-12-18T09:17:53;0.90;35.40
2687;DHT22;1353;51.386;7.028;2022-12-18T09:20:20;0.90;36.50
2687;DHT22;1353;51.386;7.028;2022-12-18T09:22:48;0.90;35.90
2687;DHT22;1353;51.386;7.028;2022-12-18T09:25:15;1.00;34.70
2687;DHT22;1353;51.386;7.028;2022-12-18T09:27:41;1.00;35.60
2687;DHT22;1353;51.386;7.028;2022-12-18T09:30:09;1.10;33.80
2687;DHT22;1353;51.386;7.028;2022-12-18T09:32:36;1.10;33.10
2687;DHT22;1353;51.386;7.028;2022-12-18T09:35:03;1.20;31.10
2687;DHT22;1353;51.386;7.028;2022-12-18T09:37:30;1.30;34.70
2687;DHT22;1353;51.386;7.028;2022-12-18T09:39:58;1.40;30.30
2687;DHT22;1353;51.386;7.028;2022-12-18T09:42:25;1.40;31.70
2687;DHT22;1353;51.386;7.028;2022-12-18T09:44:53;1.40;29.90
2687;DHT22;1353;51.386;7.028;2022-12-18T09:47:23;1.60;28.30
2687;DHT22;1353;51.386;7.028;2022-12-18T09:49:52;1.50;29.80
2687;DHT22;1353;51.386;7.028;2022-12-18T09:52:25;1.70;27.90
2687;DHT22;1353;51.386;7.028;2022-12-18T09:55:09;1.70;27.60
2687;DHT22;1353;51.386;7.028;2022-12-18T09:57:42;1.80;28.20
2687;DHT22;1353;51.386;7.028;2022-12-18T10:00:16;1.90;26.70
2687;DHT22;1353;51.386;7.028;2022-12-18T10:02:44;1.90;26.80
2687;DHT22;1353;51.386;7.028;2022-12-18T10:05:14;2.00;27.30
2687;DHT22;1353;51.386;7.028;2022-12-18T10:07:57;2.00;25.60
2687;DHT22;1353;51.386;7.028;2022-12-18T10:10:36;1.90;26.20
2687;DHT22;1353;51.386;7.028;2022-12-18T10:13:15;2.00;24.80
2687;DHT22;1353;51.386;7.028;2022-12-18T10:15:57;2.10;26.50
2687;DHT22;1353;51.386;7.028;2022-12-18T10:18:36;2.10;24.10
2687;DHT22;1353;51.386;7.028;2022-12-18T10:21:10;2.10;24.20
2687;DHT22;1353;51.386;7.028;2022-12-18T10:23:43;2.20;24.30
2687;DHT22;1353;51.386;7.028;2022-12-18T10:26:15;2.20;22.10
2687;DHT22;1353;51.386;7.028;2022-12-18T10:28:42;2.30;23.50
2687;DHT22;1353;51.386;7.028;2022-12-18T10:31:15;2.40;20.90
2687;DHT22;1353;51.386;7.028;2022-12-18T10:33:43;2.30;21.50
2687;DHT22;1353;51.386;7.028;2022-12-18T10:36:10;2.30;23.50
2687;DHT22;1353;51.386;7.028;2022-12-18T10:38:37;2.40;23.90
2687;DHT22;1353;51.386;7.028;2022-12-18T10:41:05;2.50;20.50
2687;DHT22;1353;51.386;7.028;2022-12-18T10:43:37;2.50;23.30
2687;DHT22;1353;51.386;7.028;2022-12-18T10:46:12;2.50;25.10
2687;DHT22;1353;51.386;7.028;2022-12-18T10:48:50;2.60;19.90
2687;DHT22;1353;51.386;7.028;2022-12-18T10:51:24;2.60;20.20
2687;DHT22;1353;51.386;7.028;2022-12-18T10:53:54;2.70;20.00
2687;DHT22;1353;51.386;7.028;2022-12-18T10:56:24;2.70;18.90
2687;DHT22;1353;51.386;7.028;2022-12-18T10:58:58;2.70;20.40
2687;DHT22;1353;51.386;7.028;2022-12-18T11:01:25;2.80;20.30
2687;DHT22;1353;51.386;7.028;2022-12-18T11:04:00;2.80;20.80
2687;DHT22;1353;51.386;7.028;2022-12-18T11:06:27;2.80;19.50
2687;DHT22;1353;51.386;7.028;2022-12-18T11:08:58;2.80;19.90
2687;DHT22;1353;51.386;7.028;2022-12-18T11:11:26;2.80;20.90
2687;DHT22;1353;51.386;7.028;2022-12-18T11:14:01;2.80;22.10
2687;DHT22;1353;51.386;7.028;2022-12-18T11:16:30;2.90;20.70
2687;DHT22;1353;51.386;7.028;2022-12-18T11:19:21;2.80;24.70
2687;DHT22;1353;51.386;7.028;2022-12-18T11:21:50;2.90;19.80
2687;DHT22;1353;51.386;7.028;2022-12-18T11:24:21;2.80;19.50
2687;DHT22;1353;51.386;7.028;2022-12-18T11:26:49;3.00;16.60
2687;DHT22;1353;51.386;7.028;2022-12-18T11:29:22;3.00;17.20
2687;DHT22;1353;51.386;7.028;2022-12-18T11:31:49;3.00;16.30
2687;DHT22;1353;51.386;7.028;2022-12-18T11:34:22;3.00;17.00
2687;DHT22;1353;51.386;7.028;2022-12-18T11:36:51;3.10;16.60
2687;DHT22;1353;51.386;7.028;2022-12-18T11:39:23;3.10;17.10
2687;DHT22;1353;51.386;7.028;2022-12-18T11:41:54;3.10;18.20
2687;DHT22;1353;51.386;7.028;2022-12-18T11:44:44;3.20;17.50
2687;DHT22;1353;51.386;7.028;2022-12-18T11:47:18;3.20;19.70
2687;DHT22;1353;51.386;7.028;2022-12-18T11:49:48;3.20;15.20
2687;DHT22;1353;51.386;7.028;2022-12-18T11:52:18;3.10;14.20
2687;DHT22;1353;51.386;7.028;2022-12-18T11:55:11;3.10;14.90
2687;DHT22;1353;51.386;7.028;2022-12-18T11:57:44;3.00;15.70
2687;DHT22;1353;51.386;7.028;2022-12-18T12:00:20;3.10;17.20
2687;DHT22;1353;51.386;7.028;2022-12-18T12:03:02;3.10;17.10
2687;DHT22;1353;51.386;7.028;2022-12-18T12:05:42;3.30;18.20
2687;DHT22;1353;51.386;7.028;2022-12-18T12:08:17;3.20;23.40
2687;DHT22;1353;51.386;7.028;2022-12-18T12:10:55;3.70;63.80
2687;DHT22;1353;51.386;7.028;2022-12-18T12:13:38;3.50;24.50
2687;DHT22;1353;51.386;7.028;2022-12-18T12:16:17;3.20;20.60
2687;DHT22;1353;51.386;7.028;2022-12-18T12:19:00;3.50;21.30
2687;DHT22;1353;51.386;7.028;2022-12-18T12:21:35;3.50;18.00
2687;DHT22;1353;51.386;7.028;2022-12-18T12:24:14;4.10;28.00
2687;DHT22;1353;51.386;7.028;2022-12-18T12:26:49;3.80;20.30
2687;DHT22;1353;51.386;7.028;2022-12-18T12:29:29;3.40;20.20
2687;DHT22;1353;51.386;7.028;2022-12-18T12:32:07;3.50;21.70
2687;DHT22;1353;51.386;7.028;2022-12-18T12:34:44;3.20;17.70
2687;DHT22;1353;51.386;7.028;2022-12-18T12:37:23;3.30;30.20
2687;DHT22;1353;51.386;7.028;2022-12-18T12:39:54;3.20;19.50
2687;DHT22;1353;51.386;7.028;2022-12-18T12:42:29;3.10;19.00
2687;DHT22;1353;51.386;7.028;2022-12-18T12:45:24;3.10;26.20
2687;DHT22;1353;51.386;7.028;2022-12-18T12:47:54;3.10;21.50
2687;DHT22;1353;51.386;7.028;2022-12-18T12:50:22;3.00;30.50
2687;DHT22;1353;51.386;7.028;2022-12-18T12:52:52;2.90;24.40
2687;DHT22;1353;51.386;7.028;2022-12-18T12:55:21;2.80;21.80
2687;DHT22;1353;51.386;7.028;2022-12-18T12:57:57;2.80;26.10
2687;DHT22;1353;51.386;7.028;2022-12-18T13:00:31;2.80;27.00
2687;DHT22;1353;51.386;7.028;2022-12-18T13:03:08;2.70;23.60
2687;DHT22;1353;51.386;7.028;2022-12-18T13:05:43;2.40;23.10
2687;DHT22;1353;51.386;7.028;2022-12-18T13:08:21;2.50;23.00
2687;DHT22;1353;51.386;7.028;2022-12-18T13:10:48;2.40;24.90
2687;DHT22;1353;51.386;7.028;2022-12-18T13:13:48;2.40;25.10
2687;DHT22;1353;51.386;7.028;2022-12-18T13:16:18;2.40;25.80
2687;DHT22;1353;51.386;7.028;2022-12-18T13:18:50;2.20;24.20
2687;DHT22;1353;51.386;7.028;2022-12-18T13:21:21;2.20;25.30
2687;DHT22;1353;51.386;7.028;2022-12-18T13:23:50;2.20;27.00
2687;DHT22;1353;51.386;7.028;2022-12-18T13:26:41;2.10;27.60
2687;DHT22;1353;51.386;7.028;2022-12-18T13:29:07;2.10;28.10
2687;DHT22;1353;51.386;7.028;2022-12-18T13:32:21;2.10;27.60
2687;DHT22;1353;51.386;7.028;2022-12-18T13:34:49;1.90;26.10
2687;DHT22;1353;51.386;7.028;2022-12-18T13:37:43;1.90;27.20
2687;DHT22;1353;51.386;7.028;2022-12-18T13:43:24;1.90;28.20
2687;DHT22;1353;51.386;7.028;2022-12-18T13:46:01;1.90;28.40
2687;DHT22;1353;51.386;7.028;2022-12-18T13:48:30;1.80;25.30
2687;DHT22;1353;51.386;7.028;2022-12-18T13:51:02;1.80;27.30
2687;DHT22;1353;51.386;7.028;2022-12-18T13:53:33;1.70;26.30
2687;DHT22;1353;51.386;7.028;2022-12-18T13:56:00;1.70;26.30
2687;DHT22;1353;51.386;7.028;2022-12-18T13:58:28;1.60;26.00
2687;DHT22;1353;51.386;7.028;2022-12-18T14:00:54;1.70;26.50
2687;DHT22;1353;51.386;7.028;2022-12-18T14:03:24;1.80;29.00
2687;DHT22;1353;51.386;7.028;2022-12-18T14:05:55;1.70;27.00
2687;DHT22;1353;51.386;7.028;2022-12-18T14:08:25;1.70;25.40
2687;DHT22;1353;51.386;7.028;2022-12-18T14:10:53;1.60;26.80
2687;DHT22;1353;51.386;7.028;2022-12-18T14:13:24;1.60;26.20
2687;DHT22;1353;51.386;7.028;2022-12-18T14:15:53;1.50;26.80
2687;DHT22;1353;51.386;7.028;2022-12-18T14:18:22;1.50;26.80
2687;DHT22;1353;51.386;7.028;2022-12-18T14:20:51;1.60;27.50
2687;DHT22;1353;51.386;7.028;2022-12-18T14:23:32;1.60;25.40
2687;DHT22;1353;51.386;7.028;2022-12-18T14:25:59;1.60;26.30
2687;DHT22;1353;51.386;7.028;2022-12-18T14:28:27;1.60;26.30
2687;DHT22;1353;51.386;7.028;2022-12-18T14:30:54;1.60;26.50
2687;DHT22;1353;51.386;7.028;2022-12-18T14:33:24;1.60;30.10
2687;DHT22;1353;51.386;7.028;2022-12-18T14:35:56;1.60;27.00
2687;DHT22;1353;51.386;7.028;2022-12-18T14:38:27;1.50;27.60
2687;DHT22;1353;51.386;7.028;2022-12-18T14:41:04;1.50;27.10
2687;DHT22;1353;51.386;7.028;2022-12-18T14:43:33;1.50;31.10
2687;DHT22;1353;51.386;7.028;2022-12-18T14:46:01;1.40;29.10
2687;DHT22;1353;51.386;7.028;2022-12-18T14:48:37;1.50;28.60
2687;DHT22;1353;51.386;7.028;2022-12-18T14:51:05;1.50;30.50
2687;DHT22;1353;51.386;7.028;2022-12-18T14:53:38;1.50;27.70
2687;DHT22;1353;51.386;7.028;2022-12-18T14:56:14;1.50;27.90
2687;DHT22;1353;51.386;7.028;2022-12-18T14:58:45;1.50;25.60
2687;DHT22;1353;51.386;7.028;2022-12-18T15:01:19;1.40;26.00
2687;DHT22;1353;51.386;7.028;2022-12-18T15:03:45;1.40;26.20
2687;DHT22;1353;51.386;7.028;2022-12-18T15:06:17;1.40;25.00
2687;DHT22;1353;51.386;7.028;2022-12-18T15:08:44;1.30;26.90
2687;DHT22;1353;51.386;7.028;2022-12-18T15:11:33;1.30;26.20
2687;DHT22;1353;51.386;7.028;2022-12-18T15:14:22;1.20;26.40
2687;DHT22;1353;51.386;7.028;2022-12-18T15:16:53;1.20;29.30
2687;DHT22;1353;51.386;7.028;2022-12-18T15:19:21;1.20;27.80
2687;DHT22;1353;51.386;7.028;2022-12-18T15:21:49;1.20;26.70
2687;DHT22;1353;51.386;7.028;2022-12-18T15:24:27;1.30;27.00
2687;DHT22;1353;51.386;7.028;2022-12-18T15:26:57;1.20;27.50
2687;DHT22;1353;51.386;7.028;2022-12-18T15:29:24;1.20;27.40
2687;DHT22;1353;51.386;7.028;2022-12-18T15:32:03;1.10;32.70
2687;DHT22;1353;51.386;7.028;2022-12-18T15:34:30;1.20;28.30
2687;DHT22;1353;51.386;7.028;2022-12-18T15:36:57;1.20;28.40
2687;DHT22;1353;51.386;7.028;2022-12-18T15:39:24;1.00;33.00
2687;DHT22;1353;51.386;7.028;2022-12-18T15:41:51;1.00;30.40
2687;DHT22;1353;51.386;7.028;2022-12-18T15:44:37;1.00;30.00
2687;DHT22;1353;51.386;7.028;2022-12-18T15:47:09;1.10;30.80
2687;DHT22;1353;51.386;7.028;2022-12-18T15:49:36;1.10;32.20
2687;DHT22;1353;51.386;7.028;2022-12-18T15:52:03;1.10;32.20
2687;DHT22;1353;51.386;7.028;2022-12-18T15:54:30;1.00;36.00
2687;DHT22;1353;51.386;7.028;2022-12-18T15:57:15;1.10;33.20
2687;DHT22;1353;51.386;7.028;2022-12-18T15:59:54;1.00;35.70
2687;DHT22;1353;51.386;7.028;2022-12-18T16:02:23;1.10;33.70
2687;DHT22;1353;51.386;7.028;2022-12-18T16:04:51;1.10;33.70
2687;DHT22;1353;51.386;7.028;2022-12-18T16:07:19;1.00;36.40
2687;DHT22;1353;51.386;7.028;2022-12-18T16:09:46;1.10;35.80
2687;DHT22;1353;51.386;7.028;2022-12-18T16:12:18;0.90;39.90
2687;DHT22;1353;51.386;7.028;2022-12-18T16:14:45;0.90;40.20
2687;DHT22;1353;51.386;7.028;2022-12-18T16:17:14;0.90;39.10
2687;DHT22;1353;51.386;7.028;2022-12-18T16:19:41;1.20;39.60
2687;DHT22;1353;51.386;7.028;2022-12-18T16:22:18;1.10;41.20
2687;DHT22;1353;51.386;7.028;2022-12-18T16:24:45;1.10;42.20
2687;DHT22;1353;51.386;7.028;2022-12-18T16:27:12;1.10;45.00
2687;DHT22;1353;51.386;7.028;2022-12-18T16:29:38;0.90;44.20
2687;DHT22;1353;51.386;7.028;2022-12-18T16:32:05;0.90;45.10
2687;DHT22;1353;51.386;7.028;2022-12-18T16:34:34;1.00;43.90